createdAt,value
2023-01-29T00:04:43.897Z,60.92
2023-01-29T00:14:47.041Z,61.40
2023-01-29T00:24:51.511Z,62.26
2023-01-29T00:34:54.661Z,61.72
2023-01-29T00:44:59.208Z,61.52
2023-01-29T00:55:02.499Z,61.46
2023-01-29T01:05:10.306Z,62.33
2023-01-29T01:15:13.592Z,62.35
2023-01-29T01:25:18.823Z,63.48
2023-01-29T01:35:22.064Z,63.11
2023-01-29T01:45:30.229Z,63.72
2023-01-29T01:55:35.572Z,62.86
2023-01-29T02:05:58.521Z,63.63
2023-01-29T02:16:01.676Z,63.78
2023-01-29T02:26:20.420Z,63.88
2023-01-29T02:36:31.840Z,63.30
2023-01-29T02:46:38.567Z,63.68
2023-01-29T02:56:50.322Z,63.48
2023-01-29T03:06:56.550Z,63.79
2023-01-29T03:17:01.555Z,63.93
2023-01-29T03:27:26.253Z,64.72
2023-01-29T03:37:34.955Z,64.75
2023-01-29T03:47:44.958Z,64.36
2023-01-29T03:57:57.372Z,63.99
2023-01-29T04:08:04.386Z,64.43
2023-01-29T04:18:09.044Z,64.31
2023-01-29T04:28:17.717Z,64.09
2023-01-29T04:38:29.879Z,64.26
2023-01-29T04:48:41.500Z,63.62
2023-01-29T04:58:48.909Z,64.14
2023-01-29T05:08:52.795Z,64.35
2023-01-29T05:18:57.540Z,64.19
2023-01-29T05:29:00.808Z,63.58
2023-01-29T05:39:05.635Z,64.30
2023-01-29T05:49:08.735Z,63.54
2023-01-29T05:59:13.399Z,63.42
2023-01-29T06:09:16.586Z,63.94
2023-01-29T06:19:21.390Z,64.08
2023-01-29T06:29:24.836Z,64.85
2023-01-29T06:39:29.369Z,64.30
2023-01-29T06:49:32.569Z,63.62
2023-01-29T06:59:37.024Z,62.97
2023-01-29T07:09:41.303Z,62.71
2023-01-29T07:19:45.876Z,62.86
2023-01-29T07:29:49.051Z,64.74
2023-01-29T07:39:53.545Z,62.74
2023-01-29T07:49:56.829Z,63.25
2023-01-29T08:00:01.361Z,60.83
2023-01-29T08:10:06.404Z,60.57
2023-01-29T08:20:13.766Z,60.05
2023-01-29T08:30:18.566Z,57.61
2023-01-29T08:40:23.676Z,57.16
2023-01-29T08:50:26.854Z,56.84
2023-01-29T09:00:31.496Z,57.35
2023-01-29T09:10:35.028Z,56.38
2023-01-29T09:20:39.699Z,55.02
2023-01-29T09:30:44.070Z,54.22
2023-01-29T09:40:56.186Z,53.52
2023-01-29T09:51:01.876Z,53.23
2023-01-29T10:01:14.757Z,51.79
2023-01-29T10:11:26.088Z,53.24
2023-01-29T10:21:43.090Z,53.51
2023-01-29T10:31:48.530Z,52.50
2023-01-29T10:42:06.993Z,51.58
2023-01-29T10:52:20.981Z,50.17
2023-01-29T11:02:25.585Z,50.49
2023-01-29T11:12:32.122Z,49.59
2023-01-29T11:22:37.054Z,48.78
2023-01-29T11:32:40.299Z,47.10
2023-01-29T11:42:45.047Z,49.09
2023-01-29T11:52:48.216Z,47.36
2023-01-29T12:02:55.488Z,45.52
2023-01-29T12:13:06.013Z,47.23
2023-01-29T12:23:25.160Z,45.58
2023-01-29T12:33:33.128Z,45.96
2023-01-29T12:43:44.868Z,46.22
2023-01-29T12:53:51.327Z,45.77
2023-01-29T13:04:00.428Z,45.55
2023-01-29T13:14:07.851Z,45.28
2023-01-29T13:24:15.865Z,45.06
2023-01-29T13:34:24.407Z,44.11
2023-01-29T13:44:32.352Z,45.77
2023-01-29T13:54:35.723Z,44.30
2023-01-29T14:04:40.265Z,45.20
2023-01-29T14:15:00.514Z,44.94
2023-01-29T14:25:06.915Z,44.38
2023-01-29T14:35:19.385Z,45.34
2023-01-29T14:45:29.065Z,48.83
2023-01-29T14:55:38.409Z,45.58
2023-01-29T15:05:43.698Z,46.52
2023-01-29T15:15:54.163Z,46.40
2023-01-29T15:26:01.683Z,46.49
2023-01-29T15:36:07.805Z,47.40
2023-01-29T15:46:19.137Z,47.20
2023-01-29T15:56:25.354Z,47.99
2023-01-29T16:06:32.012Z,48.56
2023-01-29T16:16:35.830Z,49.24
2023-01-29T16:26:44.063Z,49.18
2023-01-29T16:36:48.058Z,49.05
2023-01-29T16:46:52.978Z,49.27
2023-01-29T16:57:00.613Z,49.87
2023-01-29T17:07:05.648Z,50.00
2023-01-29T17:17:16.514Z,49.58
2023-01-29T17:27:23.209Z,50.25
2023-01-29T17:37:27.483Z,50.15
2023-01-29T17:47:32.236Z,50.17
2023-01-29T17:57:35.698Z,50.20
2023-01-29T18:07:41.625Z,50.69
2023-01-29T18:17:45.094Z,50.40
2023-01-29T18:27:50.144Z,50.71
2023-01-29T18:37:53.640Z,51.15
2023-01-29T18:47:58.334Z,52.19
2023-01-29T18:58:25.219Z,51.68
2023-01-29T19:08:26.949Z,52.60
2023-01-29T19:18:30.545Z,53.28
2023-01-29T19:28:35.507Z,53.09
2023-01-29T19:38:39.810Z,53.91
2023-01-29T19:48:44.794Z,53.92
2023-01-29T19:58:48.959Z,54.61
2023-01-29T20:08:54.444Z,54.66
2023-01-29T20:19:14.283Z,54.28
2023-01-29T20:29:19.787Z,55.61
2023-01-29T20:39:23.486Z,55.25
2023-01-29T20:49:28.415Z,55.49
2023-01-29T20:59:33.496Z,55.34
2023-01-29T21:09:38.474Z,55.00
2023-01-29T21:19:43.147Z,56.51
2023-01-29T21:29:48.547Z,56.49
2023-01-29T21:39:51.862Z,58.29
2023-01-29T21:49:56.348Z,56.36
2023-01-29T22:00:00.164Z,55.92
2023-01-29T22:10:05.229Z,56.35
2023-01-29T22:20:09.599Z,56.08
2023-01-29T22:30:15.223Z,57.21
2023-01-29T22:40:19.145Z,57.85
2023-01-29T22:50:25.185Z,57.23
2023-01-29T23:00:28.361Z,57.37
2023-01-29T23:10:32.850Z,57.56
2023-01-29T23:20:36.088Z,55.96
2023-01-29T23:30:40.599Z,57.50
2023-01-29T23:40:47.383Z,57.99
2023-01-29T23:50:52.142Z,57.65
